Time;durP1;ratioP1;P1;durP2;ratioP2;P2;SDS_P1;SDS_P2;PMS_P1;PMS_P2;Temp;Humidity;BMP_temperature;BMP_pressure;BME280_temperature;BME280_humidity;BME280_pressure;Samples;Min_cycle;Max_cycle;Signal;HPM_P1;HPM_P2
2022/06/12 00:01:19;;;;;;;13.95;7.25;;;29.50;99.60;;;;;;4138945;28;20050;-73
2022/06/12 00:03:32;;;;;;;13.38;6.68;;;29.60;99.50;;;;;;4131197;28;20046;-72
2022/06/12 00:05:38;;;;;;;14.25;7.43;;;29.60;99.60;;;;;;4135101;28;20757;-71
2022/06/12 00:07:53;;;;;;;13.15;6.50;;;29.70;99.50;;;;;;4150869;28;20038;-71
2022/06/12 00:10:02;;;;;;;10.10;5.68;;;29.60;99.30;;;;;;4147970;28;20520;-74
2022/06/12 00:12:10;;;;;;;10.75;5.43;;;29.70;99.00;;;;;;4156187;28;20383;-72
2022/06/12 00:14:17;;;;;;;10.43;5.22;;;29.70;99.00;;;;;;4130794;28;20538;-71
2022/06/12 00:16:25;;;;;;;16.35;5.57;;;29.80;98.80;;;;;;4102049;28;20078;-72
2022/06/12 00:18:32;;;;;;;11.60;5.30;;;29.90;98.70;;;;;;4139034;28;20069;-71
2022/06/12 00:20:38;;;;;;;11.32;5.85;;;29.90;98.70;;;;;;4158799;28;20049;-72
2022/06/12 00:22:54;;;;;;;13.25;5.72;;;30.00;98.90;;;;;;4160417;28;20041;-71
2022/06/12 00:25:03;;;;;;;13.48;5.95;;;30.10;98.60;;;;;;4142411;28;20050;-71
2022/06/12 00:27:10;;;;;;;11.25;5.57;;;30.20;98.40;;;;;;4158309;28;20243;-71
2022/06/12 00:29:22;;;;;;;10.02;5.55;;;30.20;98.30;;;;;;4142744;28;20501;-71
2022/06/12 00:31:34;;;;;;;16.08;6.35;;;30.30;98.40;;;;;;4159737;28;20106;-72
2022/06/12 00:33:42;;;;;;;9.70;5.63;;;30.20;98.40;;;;;;4157994;28;20071;-73
2022/06/12 00:35:50;;;;;;;13.95;5.07;;;30.20;97.90;;;;;;4131397;28;20062;-72
2022/06/12 00:38:03;;;;;;;11.10;5.45;;;30.20;97.80;;;;;;4146944;28;20726;-72
2022/06/12 00:40:08;;;;;;;11.10;5.20;;;30.30;97.80;;;;;;4150163;28;20415;-73
2022/06/12 00:42:33;;;;;;;14.97;7.00;;;30.30;97.70;;;;;;4146517;28;20042;-72
2022/06/12 00:44:42;;;;;;;9.27;5.30;;;30.40;97.70;;;;;;4121628;28;20297;-73
2022/06/12 00:47:00;;;;;;;7.85;4.90;;;30.50;97.60;;;;;;4158447;28;20387;-72
2022/06/12 00:49:12;;;;;;;;;;;30.60;97.70;;;;;;4142836;28;20050;-74
2022/06/12 00:51:22;;;;;;;11.70;5.50;;;30.60;97.50;;;;;;4134774;28;19929;-71
2022/06/12 00:53:34;;;;;;;10.98;4.93;;;30.60;97.20;;;;;;4125363;28;20136;-72
2022/06/12 00:55:40;;;;;;;;;;;30.70;97.40;;;;;;4150053;28;20062;-73
2022/06/12 00:57:47;;;;;;;9.48;4.80;;;30.70;97.60;;;;;;4163614;28;20012;-75
2022/06/12 00:59:58;;;;;;;9.45;4.50;;;30.80;97.30;;;;;;4143398;28;20034;-75
2022/06/12 01:02:04;;;;;;;10.35;4.95;;;30.90;97.10;;;;;;4156426;28;20049;-73
2022/06/12 01:06:33;;;;;;;9.00;4.43;;;31.00;97.00;;;;;;4138456;28;20046;-74
2022/06/12 01:08:39;;;;;;;9.38;4.68;;;31.00;97.20;;;;;;4140829;28;20042;-73
2022/06/12 01:10:45;;;;;;;7.85;4.40;;;31.00;97.10;;;;;;4131350;28;20456;-73
2022/06/12 01:12:59;;;;;;;10.60;4.93;;;31.10;97.10;;;;;;4141467;28;20628;-73
2022/06/12 01:15:14;;;;;;;14.02;5.05;;;31.00;96.40;;;;;;4131323;28;20042;-73
2022/06/12 01:17:23;;;;;;;12.02;4.50;;;31.00;96.70;;;;;;4143483;28;20073;-72
2022/06/12 01:19:39;;;;;;;11.52;4.70;;;31.00;96.40;;;;;;4126816;28;20051;-71
2022/06/12 01:22:00;;;;;;;7.65;4.95;;;31.00;96.30;;;;;;4139815;28;20054;-72
2022/06/12 01:24:24;;;;;;;14.57;4.80;;;31.10;96.10;;;;;;4138898;28;20046;-72
2022/06/12 01:26:40;;;;;;;8.95;4.70;;;31.10;96.00;;;;;;4139329;28;20046;-72
2022/06/12 01:29:01;;;;;;;9.20;4.20;;;31.10;96.10;;;;;;4111811;28;20054;-73
2022/06/12 01:31:17;;;;;;;12.48;4.57;;;31.10;96.30;;;;;;4126959;28;20465;-72
2022/06/12 01:33:34;;;;;;;8.45;4.45;;;31.20;96.20;;;;;;4129806;28;20050;-72
2022/06/12 01:36:07;;;;;;;11.15;4.40;;;31.10;96.00;;;;;;4142196;28;20048;-72
2022/06/12 01:38:15;;;;;;;8.82;4.53;;;31.00;96.30;;;;;;4131324;28;20042;-72
2022/06/12 01:40:35;;;;;;;8.32;4.38;;;31.10;96.00;;;;;;4156992;28;20400;-72
2022/06/12 01:43:02;;;;;;;11.27;5.22;;;31.20;96.00;;;;;;4135061;28;20054;-71
2022/06/12 01:45:26;;;;;;;7.90;4.60;;;31.20;95.70;;;;;;4143435;28;20077;-72
2022/06/12 01:47:41;;;;;;;12.35;4.13;;;31.20;96.00;;;;;;4124469;28;20481;-73
2022/06/12 01:49:54;;;;;;;10.52;4.32;;;31.10;96.00;;;;;;4159380;28;20079;-73
2022/06/12 01:52:15;;;;;;;11.65;4.53;;;31.20;95.90;;;;;;4144254;28;20078;-73
2022/06/12 01:54:43;;;;;;;12.40;4.88;;;31.40;95.60;;;;;;4152913;28;20093;-72
2022/06/12 01:57:15;;;;;;;9.63;4.40;;;31.60;95.70;;;;;;4161155;28;20111;-72
2022/06/12 01:59:50;;;;;;;10.65;4.47;;;31.60;95.30;;;;;;4135263;28;20061;-73
2022/06/12 02:01:58;;;;;;;9.32;4.55;;;31.70;95.00;;;;;;4144406;28;20066;-73
2022/06/12 02:04:18;;;;;;;8.88;4.40;;;31.80;95.20;;;;;;4147695;28;20038;-73
2022/06/12 02:06:37;;;;;;;12.90;4.88;;;31.80;95.00;;;;;;4133550;28;20050;-73
2022/06/12 02:08:57;;;;;;;13.02;5.07;;;31.80;95.10;;;;;;4114063;28;20182;-71
2022/06/12 02:13:43;;;;;;;6.95;3.67;;;31.70;94.40;;;;;;4164211;28;20080;-73
2022/06/12 02:16:03;;;;;;;9.90;4.55;;;31.60;94.40;;;;;;4139414;28;20052;-71
2022/06/12 02:18:26;;;;;;;13.07;3.57;;;31.70;95.10;;;;;;4137603;28;20046;-72
2022/06/12 02:20:36;;;;;;;9.35;3.72;;;31.80;94.60;;;;;;4122784;28;20102;-72
2022/06/12 02:22:44;;;;;;;8.60;3.72;;;31.80;94.60;;;;;;4126017;28;20046;-72
2022/06/12 02:24:56;;;;;;;9.07;4.07;;;31.90;94.30;;;;;;4119692;28;20089;-73
2022/06/12 02:27:17;;;;;;;7.88;3.80;;;32.00;94.50;;;;;;4128336;28;20767;-71
2022/06/12 02:29:29;;;;;;;7.95;3.05;;;32.10;94.20;;;;;;4131991;28;20161;-73
2022/06/12 02:31:36;;;;;;;9.80;3.83;;;32.00;94.00;;;;;;4130988;28;20386;-72
2022/06/12 02:33:46;;;;;;;8.48;3.90;;;31.80;93.90;;;;;;4122956;28;20109;-72
2022/06/12 02:36:10;;;;;;;10.38;4.05;;;31.90;94.10;;;;;;4131727;28;20050;-72
2022/06/12 02:38:42;;;;;;;7.32;3.40;;;32.10;93.80;;;;;;4122306;28;20041;-69
2022/06/12 02:40:53;;;;;;;7.50;3.70;;;32.10;93.80;;;;;;4144595;28;20085;-72
2022/06/12 02:43:11;;;;;;;9.25;3.65;;;32.30;93.30;;;;;;4137615;28;20061;-71
2022/06/12 02:45:38;;;;;;;7.50;3.30;;;32.20;93.40;;;;;;4113051;28;20081;-72
2022/06/12 02:47:46;;;;;;;9.10;3.97;;;32.30;93.60;;;;;;4132535;28;20452;-73
2022/06/12 02:49:56;;;;;;;8.05;3.50;;;32.30;93.80;;;;;;4121248;28;20101;-73
2022/06/12 02:52:22;;;;;;;10.02;2.85;;;32.20;93.60;;;;;;4116178;28;20058;-72
2022/06/12 02:54:40;;;;;;;7.95;3.13;;;32.20;93.10;;;;;;4112741;28;20219;-72
2022/06/12 02:57:09;;;;;;;13.90;3.90;;;32.10;93.80;;;;;;4135639;28;20062;-73
2022/06/12 02:59:23;;;;;;;8.30;3.17;;;32.20;93.60;;;;;;4144806;28;20054;-73
2022/06/12 03:01:59;;;;;;;10.23;3.35;;;32.30;93.60;;;;;;4135684;28;20128;-72
2022/06/12 03:04:16;;;;;;;6.80;3.15;;;32.30;93.70;;;;;;4129815;28;20061;-72
2022/06/12 03:06:27;;;;;;;7.70;3.13;;;32.30;93.30;;;;;;4127834;28;20046;-72
2022/06/12 03:08:40;;;;;;;7.03;3.10;;;32.60;93.60;;;;;;4145071;28;20046;-72
2022/06/12 03:10:59;;;;;;;10.98;3.42;;;32.90;92.80;;;;;;4129983;28;20050;-72
2022/06/12 03:13:11;;;;;;;7.97;3.40;;;33.00;92.70;;;;;;4144476;28;20108;-73
2022/06/12 03:15:36;;;;;;;7.88;2.95;;;32.90;92.60;;;;;;4121523;28;20126;-73
2022/06/12 03:17:46;;;;;;;5.90;3.03;;;32.80;92.70;;;;;;4142748;28;20116;-73
2022/06/12 03:19:54;;;;;;;9.65;3.13;;;32.70;92.70;;;;;;4147875;28;20042;-72
2022/06/12 03:22:19;;;;;;;7.03;3.00;;;32.90;92.80;;;;;;4132591;28;20034;-74
2022/06/12 03:24:36;;;;;;;7.47;2.97;;;33.00;92.60;;;;;;4159085;28;20045;-75
2022/06/12 03:27:13;;;;;;;9.05;2.83;;;33.10;92.30;;;;;;4146441;28;20057;-72
2022/06/12 03:29:43;;;;;;;8.70;3.20;;;33.10;92.30;;;;;;4138031;28;20542;-72
2022/06/12 03:32:07;;;;;;;8.82;3.17;;;33.30;92.40;;;;;;4145927;28;20137;-73
2022/06/12 03:34:30;;;;;;;9.80;2.90;;;33.20;92.30;;;;;;4144429;28;20050;-73
2022/06/12 03:36:40;;;;;;;7.70;3.05;;;33.10;92.30;;;;;;4144669;28;20058;-72
2022/06/12 03:38:52;;;;;;;6.53;2.95;;;33.20;92.60;;;;;;4174075;28;20048;-73
2022/06/12 03:41:19;;;;;;;7.85;2.75;;;33.30;92.90;;;;;;4148782;28;20456;-73
2022/06/12 03:43:27;;;;;;;9.80;2.80;;;33.50;92.10;;;;;;4128208;28;20043;-73
2022/06/12 03:45:52;;;;;;;7.07;2.67;;;33.50;91.90;;;;;;4136348;28;20084;-73
2022/06/12 03:48:14;;;;;;;8.15;3.03;;;33.50;92.40;;;;;;4158070;28;20128;-74
2022/06/12 03:50:35;;;;;;;7.10;3.10;;;33.70;92.10;;;;;;4114435;28;20397;-72
2022/06/12 03:52:59;;;;;;;10.70;2.97;;;33.70;91.60;;;;;;4162668;28;20045;-73
2022/06/12 03:55:03;;;;;;;;;;;33.70;92.10;;;;;;4128528;28;20149;-72
2022/06/12 03:59:47;;;;;;;8.25;2.40;;;33.70;91.80;;;;;;4143053;28;20424;-73
2022/06/12 04:02:02;;;;;;;10.00;2.85;;;33.70;91.50;;;;;;4129921;28;20058;-73
2022/06/12 04:04:08;;;;;;;5.47;2.60;;;33.70;91.20;;;;;;4131999;28;20045;-73
2022/06/12 04:06:25;;;;;;;9.57;2.80;;;33.70;91.30;;;;;;4128023;28;20489;-72
2022/06/12 04:08:36;;;;;;;7.65;3.03;;;33.80;91.00;;;;;;4112722;28;20114;-72
2022/06/12 04:10:44;;;;;;;5.25;2.35;;;33.80;91.40;;;;;;4153482;28;20048;-73
2022/06/12 04:12:48;;;;;;;7.18;2.53;;;33.70;91.00;;;;;;4160813;28;20540;-72
2022/06/12 04:14:56;;;;;;;7.20;2.80;;;33.70;91.50;;;;;;4144170;28;20042;-72
2022/06/12 04:17:02;;;;;;;8.35;2.65;;;33.80;91.30;;;;;;4159463;28;20412;-73
2022/06/12 04:19:12;;;;;;;7.88;2.53;;;33.70;91.30;;;;;;4144335;28;20110;-72
2022/06/12 04:21:22;;;;;;;4.65;2.25;;;33.70;91.20;;;;;;4157604;28;20041;-72
2022/06/12 04:23:56;;;;;;;6.93;2.33;;;33.80;90.70;;;;;;4162957;28;20041;-73
2022/06/12 04:26:09;;;;;;;5.85;2.15;;;33.90;90.70;;;;;;4159405;28;20070;-74
2022/06/12 04:28:26;;;;;;;7.10;2.70;;;34.20;90.20;;;;;;4127049;28;20050;-73
2022/06/12 04:30:35;;;;;;;5.25;3.10;;;34.20;90.30;;;;;;4160071;28;20152;-73
2022/06/12 04:32:43;;;;;;;6.00;2.63;;;34.30;90.10;;;;;;4113273;28;20062;-74
2022/06/12 04:34:55;;;;;;;4.78;1.83;;;34.20;89.80;;;;;;4127099;28;20050;-74
2022/06/12 04:37:03;;;;;;;7.63;2.45;;;34.30;90.00;;;;;;4127756;28;20050;-74
2022/06/12 04:39:12;;;;;;;6.95;2.40;;;34.30;90.00;;;;;;4109867;28;20125;-73
2022/06/12 04:41:26;;;;;;;6.57;2.40;;;34.60;90.00;;;;;;4125614;28;20039;-74
2022/06/12 04:43:30;;;;;;;4.78;1.85;;;34.40;89.00;;;;;;4110750;28;20529;-74
2022/06/12 04:45:39;;;;;;;6.35;2.88;;;34.60;89.60;;;;;;4127523;28;20102;-73
2022/06/12 04:47:46;;;;;;;6.65;2.90;;;34.50;89.80;;;;;;4143589;28;20488;-74
2022/06/12 04:49:58;;;;;;;6.03;2.17;;;34.20;89.60;;;;;;4161089;28;20075;-73
2022/06/12 04:52:09;;;;;;;4.45;2.17;;;34.20;90.40;;;;;;4145106;28;20108;-73
2022/06/12 04:54:16;;;;;;;6.65;2.72;;;34.50;90.40;;;;;;4146036;28;20629;-74
2022/06/12 04:56:24;;;;;;;8.52;2.50;;;34.80;90.30;;;;;;4128930;28;20050;-74
2022/06/12 04:58:36;;;;;;;6.88;2.83;;;35.10;89.70;;;;;;4142225;28;20045;-74
2022/06/12 05:00:45;;;;;;;6.90;2.40;;;35.10;88.70;;;;;;4161315;28;20053;-74
2022/06/12 05:02:55;;;;;;;4.72;2.08;;;34.90;89.40;;;;;;4160608;28;20045;-74
2022/06/12 05:05:01;;;;;;;6.68;2.28;;;34.70;88.90;;;;;;4149038;28;20112;-74
2022/06/12 05:07:10;;;;;;;6.07;2.38;;;34.80;89.20;;;;;;4157490;28;20124;-74
2022/06/12 05:09:17;;;;;;;5.18;2.45;;;34.70;89.40;;;;;;4142562;28;20045;-74
2022/06/12 05:11:24;;;;;;;4.50;2.08;;;34.60;90.10;;;;;;4119348;28;20046;-73
2022/06/12 05:13:31;;;;;;;5.85;2.33;;;34.50;89.20;;;;;;4142160;28;20042;-73
2022/06/12 05:15:36;;;;;;;5.90;2.40;;;34.70;89.50;;;;;;4163490;28;20416;-73
2022/06/12 05:17:45;;;;;;;5.07;2.20;;;34.50;89.20;;;;;;4110447;28;20046;-73
2022/06/12 05:19:50;;;;;;;9.05;2.22;;;34.40;90.00;;;;;;4144709;28;20046;-74
2022/06/12 05:21:56;;;;;;;5.70;2.40;;;34.50;89.50;;;;;;4127974;28;20050;-74
2022/06/12 05:24:00;;;;;;;6.93;2.47;;;34.40;89.40;;;;;;4143567;28;20561;-74
2022/06/12 05:26:08;;;;;;;8.25;2.80;;;34.60;89.60;;;;;;4137403;28;20386;-73
2022/06/12 05:28:15;;;;;;;6.07;2.40;;;34.60;89.00;;;;;;4144636;28;20128;-73
2022/06/12 05:30:24;;;;;;;7.35;2.10;;;34.80;88.80;;;;;;4108687;28;20637;-73
2022/06/12 05:32:30;;;;;;;5.18;2.15;;;34.90;88.30;;;;;;4147604;28;20108;-74
2022/06/12 05:34:35;;;;;;;3.80;1.75;;;34.80;88.50;;;;;;4146546;28;20053;-73
2022/06/12 05:36:39;;;;;;;4.47;1.95;;;34.80;87.20;;;;;;4128171;28;20046;-73
2022/06/12 05:38:46;;;;;;;5.18;2.33;;;34.80;87.20;;;;;;4150771;28;20072;-73
2022/06/12 05:40:51;;;;;;;5.35;2.10;;;35.00;87.70;;;;;;4147929;28;20045;-74
2022/06/12 05:42:58;;;;;;;5.60;1.92;;;35.00;86.90;;;;;;4097408;28;20051;-73
2022/06/12 05:45:22;;;;;;;4.50;2.15;;;35.00;86.40;;;;;;4136584;28;20385;-73
2022/06/12 05:47:28;;;;;;;5.30;2.10;;;34.80;86.90;;;;;;4148233;28;20049;-74
2022/06/12 05:49:33;;;;;;;6.20;2.22;;;34.90;86.80;;;;;;4164014;28;20045;-74
2022/06/12 05:51:40;;;;;;;5.15;2.15;;;35.10;87.20;;;;;;4145880;28;20081;-74
2022/06/12 05:53:55;;;;;;;5.93;2.13;;;35.10;87.40;;;;;;4147061;28;20049;-74
2022/06/12 05:56:16;;;;;;;4.70;2.10;;;35.10;86.70;;;;;;4130938;28;20110;-74
2022/06/12 05:58:28;;;;;;;5.35;2.28;;;35.20;87.70;;;;;;4140184;28;20072;-73
2022/06/12 06:00:33;;;;;;;6.13;2.25;;;35.00;87.80;;;;;;4147966;28;20516;-73
2022/06/12 06:02:41;;;;;;;5.25;2.38;;;34.80;87.60;;;;;;4080600;28;20052;-74
2022/06/12 06:04:48;;;;;;;6.70;2.13;;;35.10;87.50;;;;;;4144685;28;20129;-74
2022/06/12 06:06:59;;;;;;;4.72;2.20;;;35.50;87.80;;;;;;4162032;28;20392;-74
2022/06/12 06:09:07;;;;;;;7.32;2.08;;;35.60;87.70;;;;;;4144545;28;20049;-74
2022/06/12 06:11:18;;;;;;;7.32;2.30;;;35.70;87.50;;;;;;4146879;28;20442;-74
2022/06/12 06:13:24;;;;;;;5.68;2.55;;;35.70;86.80;;;;;;4162806;28;20693;-74
2022/06/12 06:15:32;;;;;;;4.70;2.03;;;35.80;86.70;;;;;;4134538;28;20755;-73
2022/06/12 06:17:39;;;;;;;4.72;2.42;;;35.70;88.10;;;;;;4147110;28;20508;-74
2022/06/12 06:19:45;;;;;;;6.18;2.30;;;35.40;87.10;;;;;;4145338;28;20050;-74
2022/06/12 06:21:52;;;;;;;5.85;2.72;;;35.30;87.40;;;;;;4151237;28;20798;-73
2022/06/12 06:23:59;;;;;;;8.68;2.70;;;35.40;87.30;;;;;;4146572;28;20033;-73
2022/06/12 06:26:06;;;;;;;6.63;2.10;;;35.40;87.30;;;;;;4143773;28;20073;-74
2022/06/12 06:28:13;;;;;;;4.45;2.20;;;35.10;87.00;;;;;;4144313;28;20046;-74
2022/06/12 06:30:22;;;;;;;3.83;1.98;;;34.90;87.30;;;;;;4137225;28;20045;-72
2022/06/12 06:32:27;;;;;;;5.32;1.95;;;34.80;87.80;;;;;;4164603;28;20049;-72
2022/06/12 06:34:44;;;;;;;6.70;2.20;;;34.80;88.60;;;;;;4162594;28;20045;-73
2022/06/12 06:36:49;;;;;;;6.50;2.65;;;34.80;89.40;;;;;;4162295;28;20096;-73
2022/06/12 06:38:56;;;;;;;7.18;2.53;;;34.80;89.40;;;;;;4147205;28;20046;-72
2022/06/12 06:41:03;;;;;;;6.13;2.70;;;34.90;89.10;;;;;;4129501;28;20566;-73
2022/06/12 06:43:10;;;;;;;5.72;2.42;;;35.00;88.80;;;;;;4160843;28;20718;-73
2022/06/12 06:47:35;;;;;;;6.85;2.67;;;35.30;88.40;;;;;;4132128;28;20474;-73
2022/06/12 06:49:44;;;;;;;9.18;2.38;;;35.10;87.60;;;;;;4169486;28;20048;-73
2022/06/12 06:51:49;;;;;;;6.35;2.47;;;35.00;89.90;;;;;;4170259;28;20527;-72
2022/06/12 06:53:59;;;;;;;6.40;2.58;;;34.80;89.20;;;;;;4149913;28;20049;-72
2022/06/12 06:56:03;;;;;;;7.40;2.92;;;34.90;89.10;;;;;;4149277;28;20112;-72
2022/06/12 06:58:12;;;;;;;4.38;2.80;;;35.00;89.50;;;;;;4152385;28;20038;-72
2022/06/12 07:00:21;;;;;;;7.63;3.75;;;35.10;88.80;;;;;;4142239;28;20038;-72
2022/06/12 07:02:28;;;;;;;7.70;3.70;;;35.10;90.10;;;;;;4142328;28;20046;-73
2022/06/12 07:04:33;;;;;;;7.07;3.50;;;35.10;89.70;;;;;;4144774;28;20037;-73
2022/06/12 07:06:40;;;;;;;5.07;2.97;;;35.00;89.90;;;;;;4129464;28;20086;-73
2022/06/12 07:08:47;;;;;;;10.15;3.47;;;34.80;90.20;;;;;;4157401;28;20488;-74
2022/06/12 07:10:53;;;;;;;7.47;3.50;;;34.60;90.00;;;;;;4129368;28;20120;-73
2022/06/12 07:13:02;;;;;;;6.35;3.00;;;34.50;90.40;;;;;;4129297;28;20664;-74
2022/06/12 07:15:16;;;;;;;6.60;4.00;;;34.50;90.50;;;;;;4160686;28;20196;-74
2022/06/12 07:17:24;;;;;;;6.65;3.10;;;34.70;90.60;;;;;;4137028;28;20132;-73
2022/06/12 07:19:30;;;;;;;8.63;3.53;;;34.80;90.30;;;;;;4143894;28;20053;-73
2022/06/12 07:21:38;;;;;;;7.75;3.10;;;34.90;90.40;;;;;;4160696;28;20041;-73
2022/06/12 07:23:45;;;;;;;9.10;4.97;;;35.00;90.40;;;;;;4129370;28;20050;-74
2022/06/12 07:26:03;;;;;;;10.40;5.07;;;35.00;90.40;;;;;;4148258;28;20112;-72
2022/06/12 07:28:18;;;;;;;9.93;4.90;;;35.00;90.60;;;;;;4123736;28;20093;-72
2022/06/12 07:30:25;;;;;;;7.47;4.60;;;34.90;90.40;;;;;;4164799;28;20047;-73
2022/06/12 07:32:34;;;;;;;11.50;6.22;;;34.80;90.40;;;;;;4154972;28;20038;-72
2022/06/12 07:34:59;;;;;;;13.07;6.50;;;34.70;90.70;;;;;;4135076;28;20491;-72
2022/06/12 07:37:24;;;;;;;13.27;6.22;;;34.60;90.90;;;;;;4146187;28;20050;-72
2022/06/12 07:39:32;;;;;;;6.07;4.18;;;34.60;91.20;;;;;;4162669;28;20053;-72
2022/06/12 07:41:41;;;;;;;11.40;4.40;;;34.60;91.20;;;;;;4146046;28;20072;-73
2022/06/12 07:43:47;;;;;;;17.65;4.22;;;34.60;91.30;;;;;;4160897;28;20047;-73
2022/06/12 07:46:04;;;;;;;19.65;3.97;;;33.70;92.50;;;;;;4117057;28;20043;-73
2022/06/12 07:48:34;;;;;;;13.43;4.28;;;33.00;93.40;;;;;;4139634;28;20473;-73
2022/06/12 07:50:43;;;;;;;11.65;4.15;;;32.20;94.40;;;;;;4162313;28;20103;-74
2022/06/12 07:52:55;;;;;;;9.50;4.35;;;31.20;95.80;;;;;;4147479;28;20046;-74
2022/06/12 07:55:02;;;;;;;7.25;3.20;;;31.10;97.00;;;;;;4145598;28;20050;-74
2022/06/12 07:57:10;;;;;;;10.23;5.03;;;31.00;96.00;;;;;;4163497;28;20049;-76
2022/06/12 07:59:23;;;;;;;8.73;3.50;;;30.70;97.10;;;;;;4161393;28;20133;-72
2022/06/12 08:01:31;;;;;;;8.32;2.50;;;29.20;99.30;;;;;;4157685;28;20601;-72
2022/06/12 08:03:36;;;;;;;7.28;2.90;;;27.30;99.90;;;;;;4129704;28;20057;-72
2022/06/12 08:05:47;;;;;;;4.57;2.63;;;27.40;99.90;;;;;;4142420;28;20092;-73
2022/06/12 08:07:55;;;;;;;4.43;1.90;;;28.30;99.90;;;;;;4153905;28;20786;-72
2022/06/12 08:10:03;;;;;;;3.95;1.60;;;29.10;99.90;;;;;;4134270;28;20147;-72
2022/06/12 08:12:15;;;;;;;4.15;2.30;;;29.40;99.90;;;;;;4167299;28;20052;-72
2022/06/12 08:14:22;;;;;;;5.22;2.67;;;29.60;99.40;;;;;;4143949;28;20046;-72
2022/06/12 08:16:33;;;;;;;3.83;2.35;;;29.30;99.30;;;;;;4144122;28;20118;-73
2022/06/12 08:18:48;;;;;;;5.93;2.63;;;29.20;99.00;;;;;;4140266;28;20065;-72
2022/06/12 08:21:01;;;;;;;8.95;3.17;;;29.20;99.90;;;;;;4164758;28;20045;-71
2022/06/12 08:23:27;;;;;;;7.10;3.63;;;28.90;99.90;;;;;;4169803;28;20610;-73
2022/06/12 08:25:36;;;;;;;9.80;3.97;;;29.10;99.90;;;;;;4113480;28;20059;-73
2022/06/12 08:27:41;;;;;;;6.82;2.88;;;29.50;99.90;;;;;;4136813;28;20042;-73
2022/06/12 08:29:46;;;;;;;8.52;2.80;;;29.80;99.90;;;;;;4147596;28;20042;-73
2022/06/12 08:31:55;;;;;;;5.28;2.00;;;29.80;99.80;;;;;;4167262;28;20057;-73
2022/06/12 08:34:15;;;;;;;4.57;2.40;;;29.90;98.70;;;;;;4149524;28;20042;-72
2022/06/12 08:36:22;;;;;;;6.65;1.90;;;29.90;99.10;;;;;;4165947;28;20076;-73
2022/06/12 08:38:29;;;;;;;3.70;1.77;;;29.50;99.20;;;;;;4157846;28;20041;-73
2022/06/12 08:40:45;;;;;;;4.43;2.00;;;29.50;99.80;;;;;;4164750;28;20041;-73
2022/06/12 08:42:58;;;;;;;7.20;2.70;;;29.70;99.90;;;;;;4160817;28;20781;-73
2022/06/12 08:45:10;;;;;;;7.95;2.53;;;29.90;99.90;;;;;;4111514;28;20058;-73
2022/06/12 08:47:26;;;;;;;6.03;4.05;;;30.00;99.90;;;;;;4143915;28;20570;-72
2022/06/12 08:49:44;;;;;;;8.45;4.13;;;30.10;99.90;;;;;;4158166;28;20052;-72
2022/06/12 08:52:00;;;;;;;7.97;3.22;;;30.20;99.90;;;;;;4158057;28;20053;-72
2022/06/12 08:54:13;;;;;;;8.63;3.35;;;30.10;99.90;;;;;;4128941;28;20046;-72
2022/06/12 08:56:36;;;;;;;9.07;3.58;;;30.10;99.90;;;;;;4126705;28;20512;-72
2022/06/12 08:58:57;;;;;;;7.47;3.30;;;30.10;99.90;;;;;;4129965;28;20057;-71
2022/06/12 09:01:04;;;;;;;7.97;2.80;;;30.00;99.90;;;;;;4160778;28;20424;-71
2022/06/12 09:03:14;;;;;;;5.50;2.85;;;30.10;99.90;;;;;;4144103;28;20488;-72
2022/06/12 09:05:41;;;;;;;5.45;3.10;;;30.20;99.90;;;;;;4144981;28;20076;-72
2022/06/12 09:08:14;;;;;;;6.90;3.33;;;30.30;99.90;;;;;;4138367;28;20521;-71
2022/06/12 09:10:40;;;;;;;7.75;3.08;;;30.30;99.90;;;;;;4131728;28;20047;-72
2022/06/12 09:12:53;;;;;;;6.93;3.53;;;30.40;99.90;;;;;;4139870;28;20517;-72
2022/06/12 09:15:19;;;;;;;8.30;4.25;;;30.40;99.90;;;;;;4161837;28;20049;-73
2022/06/12 09:17:44;;;;;;;7.70;3.60;;;30.40;99.90;;;;;;4160789;28;20037;-73
2022/06/12 09:20:09;;;;;;;4.82;3.40;;;30.40;99.90;;;;;;4159254;28;20041;-72
2022/06/12 09:22:30;;;;;;;7.28;3.50;;;30.40;99.90;;;;;;4164224;28;20045;-71
2022/06/12 09:24:51;;;;;;;6.25;3.53;;;30.60;99.90;;;;;;4160689;28;20057;-71
2022/06/12 09:27:03;;;;;;;8.90;3.50;;;30.60;99.90;;;;;;4126381;28;20142;-71
2022/06/12 09:29:35;;;;;;;8.52;3.53;;;30.60;99.90;;;;;;4169490;28;20043;-71
2022/06/12 09:32:03;;;;;;;8.20;3.90;;;30.60;99.90;;;;;;4171109;28;20140;-72
2022/06/12 09:34:26;;;;;;;7.68;3.72;;;30.70;99.90;;;;;;4155732;28;20495;-72
2022/06/12 09:36:47;;;;;;;8.20;4.10;;;30.80;99.90;;;;;;4151076;28;20064;-72
2022/06/12 09:39:09;;;;;;;8.05;3.97;;;30.90;99.90;;;;;;4169320;28;20057;-72
2022/06/12 09:41:26;;;;;;;7.05;3.90;;;30.90;99.90;;;;;;4161411;28;20571;-71
2022/06/12 09:43:34;;;;;;;10.75;4.80;;;30.90;99.90;;;;;;4159113;28;20042;-72
2022/06/12 09:46:04;;;;;;;12.70;7.18;;;31.00;99.90;;;;;;4152776;28;20358;-72
2022/06/12 09:48:30;;;;;;;15.85;9.32;;;31.00;99.90;;;;;;4158616;28;20056;-71
2022/06/12 09:50:38;;;;;;;12.63;8.40;;;31.00;99.90;;;;;;4144342;28;20045;-72
2022/06/12 09:52:53;;;;;;;12.18;8.30;;;30.90;99.90;;;;;;4146372;28;20608;-71
2022/06/12 09:55:06;;;;;;;11.93;6.55;;;30.90;99.90;;;;;;4150358;28;20041;-71
2022/06/12 09:57:18;;;;;;;9.07;6.55;;;30.90;99.90;;;;;;4159075;28;20050;-72
2022/06/12 09:59:37;;;;;;;9.00;5.50;;;31.00;99.90;;;;;;4163252;28;20447;-72
2022/06/12 10:01:45;;;;;;;7.78;4.82;;;31.00;99.90;;;;;;4110334;28;20051;-72
2022/06/12 10:03:54;;;;;;;8.00;4.53;;;31.00;99.90;;;;;;4144074;28;20045;-72
2022/06/12 10:06:04;;;;;;;9.88;4.90;;;31.00;99.90;;;;;;4161442;28;20127;-72
2022/06/12 10:08:25;;;;;;;7.10;3.80;;;31.00;99.90;;;;;;4105053;28;20058;-72
2022/06/12 10:10:50;;;;;;;8.02;4.60;;;31.10;99.90;;;;;;4160572;28;20056;-72
2022/06/12 10:13:00;;;;;;;7.07;4.68;;;31.00;99.90;;;;;;4144778;28;20540;-72
2022/06/12 10:15:30;;;;;;;8.70;6.23;;;31.00;99.90;;;;;;4129412;28;20500;-72
2022/06/12 10:17:51;;;;;;;13.20;9.07;;;31.00;99.90;;;;;;4160726;28;20045;-73
2022/06/12 10:20:05;;;;;;;11.85;7.30;;;30.90;99.90;;;;;;4131785;28;20046;-73
2022/06/12 10:22:16;;;;;;;6.90;5.32;;;30.90;99.90;;;;;;4165764;28;20045;-73
2022/06/12 10:24:25;;;;;;;9.57;6.22;;;30.80;99.90;;;;;;4154497;28;20538;-72
2022/06/12 10:26:31;;;;;;;7.70;5.15;;;30.80;99.90;;;;;;4162911;28;20049;-72
2022/06/12 10:28:38;;;;;;;8.75;4.80;;;30.80;99.90;;;;;;4134020;28;20054;-72
2022/06/12 10:30:56;;;;;;;9.40;5.70;;;30.80;99.90;;;;;;4138381;28;20762;-74
2022/06/12 10:33:21;;;;;;;10.15;5.15;;;30.80;99.90;;;;;;4124514;28;20046;-74
2022/06/12 10:35:30;;;;;;;10.00;5.05;;;30.80;99.90;;;;;;4140953;28;20081;-73
2022/06/12 10:37:36;;;;;;;9.40;5.88;;;30.60;99.90;;;;;;4141611;28;20050;-73
2022/06/12 10:39:42;;;;;;;12.63;6.20;;;30.60;99.90;;;;;;4143400;28;20165;-75
2022/06/12 10:42:02;;;;;;;10.00;6.25;;;30.60;99.90;;;;;;4116850;28;20165;-71
2022/06/12 10:44:08;;;;;;;12.93;9.02;;;30.60;99.90;;;;;;4125936;28;20938;-71
2022/06/12 10:46:26;;;;;;;15.20;9.65;;;30.60;99.90;;;;;;4106086;28;20122;-71
2022/06/12 10:48:35;;;;;;;12.00;8.75;;;30.60;99.90;;;;;;4096573;28;20743;-72
2022/06/12 10:50:50;;;;;;;16.40;8.02;;;30.50;99.90;;;;;;4103550;28;20073;-72
2022/06/12 10:53:14;;;;;;;13.43;7.47;;;30.60;99.90;;;;;;4110210;28;20124;-71
2022/06/12 10:55:35;;;;;;;12.25;6.70;;;30.60;99.90;;;;;;4066721;29;20255;-72
2022/06/12 10:57:51;;;;;;;10.82;6.13;;;30.70;99.90;;;;;;4104031;28;20193;-72
2022/06/12 11:00:15;;;;;;;11.25;4.88;;;30.70;99.90;;;;;;4096025;28;20175;-72
2022/06/12 11:02:32;;;;;;;5.32;3.40;;;30.70;99.90;;;;;;4111593;28;20070;-70
2022/06/12 11:04:37;;;;;;;7.15;2.92;;;30.40;98.90;;;;;;4110725;28;20055;-71
2022/06/12 11:06:55;;;;;;;7.03;3.55;;;30.40;98.30;;;;;;4111088;28;20390;-71
2022/06/12 11:09:25;;;;;;;7.60;3.22;;;30.30;98.40;;;;;;4135328;28;20068;-71
2022/06/12 11:11:35;;;;;;;6.65;2.75;;;30.30;98.40;;;;;;4127028;28;20050;-70
2022/06/12 11:14:01;;;;;;;6.50;2.80;;;30.10;98.50;;;;;;4121288;28;20081;-71
2022/06/12 11:16:16;;;;;;;4.93;2.80;;;30.10;98.60;;;;;;4109460;28;20058;-71
2022/06/12 11:18:39;;;;;;;8.05;3.30;;;30.10;98.50;;;;;;4139572;28;20095;-70
2022/06/12 11:20:57;;;;;;;6.25;3.83;;;30.10;99.90;;;;;;4144511;28;20046;-71
2022/06/12 11:23:20;;;;;;;8.77;3.35;;;30.10;99.90;;;;;;4145258;28;20078;-69
2022/06/12 11:25:59;;;;;;;8.85;4.03;;;29.90;99.90;;;;;;4147033;28;20737;-70
2022/06/12 11:28:28;;;;;;;7.93;4.20;;;29.90;99.90;;;;;;4151965;28;20049;-70
2022/06/12 11:30:35;;;;;;;13.20;7.78;;;29.90;99.90;;;;;;4128603;28;20050;-69
2022/06/12 11:33:00;;;;;;;9.93;7.03;;;29.90;99.90;;;;;;4159991;28;20077;-69
2022/06/12 11:35:17;;;;;;;12.73;6.93;;;29.90;99.90;;;;;;4144044;28;20041;-69
2022/06/12 11:37:36;;;;;;;13.95;8.68;;;29.90;99.90;;;;;;4161883;28;20072;-69
2022/06/12 11:39:59;;;;;;;24.45;13.18;;;29.80;99.90;;;;;;4160701;28;20076;-69
2022/06/12 11:42:21;;;;;;;17.45;12.55;;;29.80;99.90;;;;;;4141747;28;20034;-67
2022/06/12 11:44:45;;;;;;;29.55;16.75;;;29.80;99.90;;;;;;4128981;28;20133;-69